WAT7129 EVLA-ENVA
Flight info
| Callsign | WAT7129 |
|---|---|
| Flight time | 1h 37m |
| Altitude | 36000 |
| Route | DESON P141 EVONA DCT NOSLI DCT DIKVI DCT VEVOD |
| Aircraft | E75L/M-SDE3GILORVW/S |
Departure
| Time | 2026-04-27 18:32 |
|---|---|
| Airport | Liepāja International Airport (EVLA) |
Arrival
| Time | 2026-04-27 20:09 |
|---|---|
| Airport | Trondheim Airport, Værnes (ENVA) |
| Time | Latitude | Longitude | Altitude | Speed | Heading |
|---|---|---|---|---|---|
| 2026-04-27 18:29 | 56.51901 | 21.09724 | 15 ft | 11 kts | 164° |
| 2026-04-27 18:29 | 56.51819 | 21.09753 | 15 ft | 12 kts | 176° |
| 2026-04-27 18:29 | 56.51777 | 21.09813 | 13 ft | 8 kts | 83° |
| 2026-04-27 18:29 | 56.51793 | 21.09916 | 14 ft | 9 kts | 71° |
| 2026-04-27 18:30 | 56.51816 | 21.10040 | 15 ft | 12 kts | 68° |
| 2026-04-27 18:30 | 56.51855 | 21.10228 | 18 ft | 21 kts | 70° |
| 2026-04-27 18:30 | 56.51929 | 21.10595 | 18 ft | 34 kts | 70° |
| 2026-04-27 18:30 | 56.52007 | 21.11003 | 19 ft | 30 kts | 72° |
| 2026-04-27 18:31 | 56.52026 | 21.11222 | 19 ft | 9 kts | 20° |
| 2026-04-27 18:31 | 56.52043 | 21.11161 | 19 ft | 9 kts | 251° |
| 2026-04-27 18:31 | 56.51962 | 21.10768 | 17 ft | 73 kts | 250° |
| 2026-04-27 18:31 | 56.51692 | 21.09420 | 45 ft | 148 kts | 251° |
| 2026-04-27 18:32 | 56.51369 | 21.07451 | 725 ft | 174 kts | 258° |
| 2026-04-27 18:32 | 56.51013 | 21.05305 | 1742 ft | 186 kts | 260° |
| 2026-04-27 18:32 | 56.50572 | 21.02948 | 2224 ft | 202 kts | 257° |
| 2026-04-27 18:32 | 56.50033 | 21.00488 | 2860 ft | 215 kts | 256° |
| 2026-04-27 18:33 | 56.49520 | 20.97926 | 3673 ft | 220 kts | 264° |
| 2026-04-27 18:33 | 56.49511 | 20.95146 | 4214 ft | 224 kts | 292° |
| 2026-04-27 18:33 | 56.50242 | 20.92678 | 4864 ft | 226 kts | 316° |
| 2026-04-27 18:33 | 56.51462 | 20.90866 | 5349 ft | 234 kts | 327° |
| 2026-04-27 18:34 | 56.52821 | 20.89115 | 4897 ft | 240 kts | 329° |
| 2026-04-27 18:34 | 56.54142 | 20.87512 | 4890 ft | 228 kts | 329° |
| 2026-04-27 18:34 | 56.55445 | 20.85897 | 4931 ft | 226 kts | 329° |
| 2026-04-27 18:34 | 56.56750 | 20.84284 | 5023 ft | 230 kts | 329° |
| 2026-04-27 18:35 | 56.58076 | 20.82661 | 5358 ft | 231 kts | 329° |
| 2026-04-27 18:35 | 56.59411 | 20.81028 | 6193 ft | 232 kts | 329° |
| 2026-04-27 18:35 | 56.60739 | 20.79345 | 6989 ft | 234 kts | 328° |
| 2026-04-27 18:35 | 56.62069 | 20.77617 | 7705 ft | 237 kts | 328° |
| 2026-04-27 18:36 | 56.63418 | 20.75872 | 8398 ft | 240 kts | 328° |
| 2026-04-27 18:36 | 56.64783 | 20.74108 | 9061 ft | 242 kts | 328° |
| 2026-04-27 18:36 | 56.66169 | 20.72321 | 9739 ft | 246 kts | 328° |
| 2026-04-27 18:36 | 56.67577 | 20.70502 | 10224 ft | 256 kts | 328° |
| 2026-04-27 18:37 | 56.69071 | 20.68581 | 10556 ft | 269 kts | 327° |
| 2026-04-27 18:37 | 56.70611 | 20.66585 | 11116 ft | 273 kts | 327° |
| 2026-04-27 18:37 | 56.72161 | 20.64579 | 11835 ft | 273 kts | 327° |
| 2026-04-27 18:37 | 56.73712 | 20.62567 | 12610 ft | 274 kts | 327° |
| 2026-04-27 18:38 | 56.75264 | 20.60553 | 13418 ft | 274 kts | 326° |
| 2026-04-27 18:38 | 56.76821 | 20.58532 | 14235 ft | 275 kts | 326° |
| 2026-04-27 18:38 | 56.78381 | 20.56505 | 15016 ft | 276 kts | 326° |
| 2026-04-27 18:38 | 56.79942 | 20.54474 | 15855 ft | 275 kts | 326° |
| 2026-04-27 18:39 | 56.81493 | 20.52454 | 16746 ft | 273 kts | 326° |
| 2026-04-27 18:39 | 56.83038 | 20.50441 | 17635 ft | 273 kts | 326° |
| 2026-04-27 18:39 | 56.84581 | 20.48426 | 18555 ft | 272 kts | 327° |
| 2026-04-27 18:39 | 56.86126 | 20.46409 | 19288 ft | 274 kts | 326° |
| 2026-04-27 18:40 | 56.87681 | 20.44376 | 19973 ft | 276 kts | 326° |
| 2026-04-27 18:40 | 56.89245 | 20.42300 | 20641 ft | 280 kts | 323° |
| 2026-04-27 18:40 | 56.90658 | 20.39811 | 21277 ft | 284 kts | 319° |
| 2026-04-27 18:40 | 56.92075 | 20.37267 | 21940 ft | 286 kts | 319° |
| 2026-04-27 18:41 | 56.93507 | 20.34684 | 22454 ft | 292 kts | 319° |
| 2026-04-27 18:41 | 56.94942 | 20.32086 | 23101 ft | 296 kts | 319° |
| 2026-04-27 18:41 | 56.96407 | 20.29416 | 23782 ft | 299 kts | 319° |
| 2026-04-27 18:41 | 56.97885 | 20.26718 | 24377 ft | 301 kts | 319° |
| 2026-04-27 18:42 | 56.99376 | 20.23989 | 24957 ft | 304 kts | 318° |
| 2026-04-27 18:42 | 56.99883 | 20.23060 | 25143 ft | 305 kts | 318° |
| 2026-04-27 18:42 | 57.02389 | 20.18455 | 26134 ft | 307 kts | 318° |
| 2026-04-27 18:42 | 57.03900 | 20.15674 | 26691 ft | 309 kts | 318° |
| 2026-04-27 18:43 | 57.05422 | 20.12869 | 27205 ft | 312 kts | 317° |
| 2026-04-27 18:43 | 57.06464 | 20.10947 | 27526 ft | 314 kts | 317° |
| 2026-04-27 18:43 | 57.08008 | 20.08095 | 27977 ft | 318 kts | 317° |
| 2026-04-27 18:43 | 57.09572 | 20.05199 | 28531 ft | 319 kts | 317° |
| 2026-04-27 18:44 | 57.11146 | 20.02283 | 28953 ft | 323 kts | 317° |
| 2026-04-27 18:44 | 57.12728 | 19.99347 | 29562 ft | 322 kts | 317° |
| 2026-04-27 18:44 | 57.14298 | 19.96428 | 30237 ft | 320 kts | 316° |
| 2026-04-27 18:44 | 57.15838 | 19.93566 | 30763 ft | 319 kts | 318° |
| 2026-04-27 18:45 | 57.17593 | 19.91054 | 31037 ft | 322 kts | 324° |
| 2026-04-27 18:45 | 57.19413 | 19.88643 | 31436 ft | 323 kts | 324° |
| 2026-04-27 18:45 | 57.21237 | 19.86214 | 31868 ft | 323 kts | 324° |
| 2026-04-27 18:45 | 57.23064 | 19.83799 | 32315 ft | 324 kts | 324° |
| 2026-04-27 18:46 | 57.24899 | 19.81385 | 32733 ft | 324 kts | 324° |
| 2026-04-27 18:46 | 57.26739 | 19.78966 | 33154 ft | 325 kts | 324° |
| 2026-04-27 18:46 | 57.28579 | 19.76550 | 33578 ft | 325 kts | 324° |
| 2026-04-27 18:46 | 57.30424 | 19.74127 | 33999 ft | 325 kts | 324° |
| 2026-04-27 18:47 | 57.32272 | 19.71698 | 34390 ft | 326 kts | 325° |
| 2026-04-27 18:47 | 57.34127 | 19.69258 | 34658 ft | 329 kts | 325° |
| 2026-04-27 18:47 | 57.35997 | 19.66798 | 34928 ft | 331 kts | 324° |
| 2026-04-27 18:47 | 57.37878 | 19.64317 | 35186 ft | 333 kts | 324° |
| 2026-04-27 18:48 | 57.39769 | 19.61819 | 35428 ft | 335 kts | 324° |
| 2026-04-27 18:48 | 57.41673 | 19.59303 | 35676 ft | 337 kts | 324° |
| 2026-04-27 18:48 | 57.43587 | 19.56771 | 35921 ft | 339 kts | 324° |
| 2026-04-27 18:48 | 57.45513 | 19.54218 | 36160 ft | 341 kts | 324° |
| 2026-04-27 18:49 | 57.47420 | 19.51688 | 36394 ft | 339 kts | 324° |
| 2026-04-27 18:49 | 57.49372 | 19.49096 | 36387 ft | 349 kts | 324° |
| 2026-04-27 18:49 | 57.53419 | 19.43712 | 36377 ft | 368 kts | 324° |
| 2026-04-27 18:50 | 57.55534 | 19.40891 | 36261 ft | 378 kts | 324° |
| 2026-04-27 18:50 | 57.57688 | 19.38014 | 36258 ft | 385 kts | 324° |
| 2026-04-27 18:50 | 57.62073 | 19.32144 | 36279 ft | 390 kts | 324° |
| 2026-04-27 18:51 | 57.66477 | 19.26230 | 36273 ft | 390 kts | 324° |
| 2026-04-27 18:51 | 57.70878 | 19.20303 | 36282 ft | 390 kts | 324° |
| 2026-04-27 18:52 | 57.75285 | 19.14351 | 36281 ft | 390 kts | 324° |
| 2026-04-27 18:53 | 57.81860 | 19.05439 | 36276 ft | 391 kts | 324° |
| 2026-04-27 18:53 | 57.86275 | 18.99428 | 36293 ft | 392 kts | 324° |
| 2026-04-27 18:54 | 57.90802 | 18.93249 | 36307 ft | 393 kts | 324° |
| 2026-04-27 18:54 | 57.95085 | 18.87381 | 36295 ft | 391 kts | 324° |
| 2026-04-27 18:55 | 57.99487 | 18.81333 | 36284 ft | 391 kts | 324° |
| 2026-04-27 18:55 | 58.03883 | 18.75280 | 36286 ft | 391 kts | 324° |
| 2026-04-27 18:56 | 58.08271 | 18.69212 | 36290 ft | 391 kts | 324° |
| 2026-04-27 18:56 | 58.12682 | 18.63111 | 36287 ft | 393 kts | 324° |
| 2026-04-27 18:57 | 58.17078 | 18.56985 | 36291 ft | 392 kts | 324° |
| 2026-04-27 18:57 | 58.21475 | 18.50854 | 36293 ft | 393 kts | 324° |
| 2026-04-27 18:58 | 58.25877 | 18.44722 | 36294 ft | 393 kts | 324° |
| 2026-04-27 18:58 | 58.30266 | 18.38556 | 36288 ft | 392 kts | 324° |
| 2026-04-27 18:59 | 58.34634 | 18.32416 | 36292 ft | 393 kts | 324° |
| 2026-04-27 18:59 | 58.39017 | 18.26218 | 36291 ft | 392 kts | 324° |
| 2026-04-27 19:00 | 58.43405 | 18.20024 | 36289 ft | 392 kts | 324° |
| 2026-04-27 19:00 | 58.47785 | 18.13813 | 36292 ft | 392 kts | 324° |
| 2026-04-27 19:01 | 58.52160 | 18.07572 | 36289 ft | 392 kts | 324° |
| 2026-04-27 19:01 | 58.56534 | 18.01300 | 36286 ft | 393 kts | 324° |
| 2026-04-27 19:02 | 58.60900 | 17.95014 | 36286 ft | 393 kts | 324° |
| 2026-04-27 19:02 | 58.65272 | 17.88730 | 36262 ft | 394 kts | 324° |
| 2026-04-27 19:03 | 58.69630 | 17.82426 | 36308 ft | 393 kts | 324° |
| 2026-04-27 19:03 | 58.74006 | 17.76083 | 36289 ft | 394 kts | 324° |
| 2026-04-27 19:04 | 58.78386 | 17.69761 | 36286 ft | 394 kts | 324° |
| 2026-04-27 19:04 | 58.82763 | 17.63408 | 36289 ft | 394 kts | 324° |
| 2026-04-27 19:05 | 58.87128 | 17.57014 | 36286 ft | 394 kts | 323° |
| 2026-04-27 19:05 | 58.91482 | 17.50598 | 36284 ft | 394 kts | 324° |
| 2026-04-27 19:06 | 58.95844 | 17.44176 | 36291 ft | 394 kts | 323° |
| 2026-04-27 19:06 | 59.00200 | 17.37736 | 36303 ft | 395 kts | 323° |
| 2026-04-27 19:07 | 59.04514 | 17.31296 | 36296 ft | 393 kts | 323° |
| 2026-04-27 19:07 | 59.08949 | 17.25048 | 36307 ft | 394 kts | 328° |
| 2026-04-27 19:08 | 59.13581 | 17.19372 | 36294 ft | 393 kts | 328° |
| 2026-04-27 19:08 | 59.18234 | 17.13736 | 36295 ft | 394 kts | 328° |
| 2026-04-27 19:09 | 59.22887 | 17.08108 | 36296 ft | 394 kts | 328° |
| 2026-04-27 19:09 | 59.27507 | 17.02503 | 36297 ft | 394 kts | 328° |
| 2026-04-27 19:10 | 59.32156 | 16.96844 | 36286 ft | 393 kts | 328° |
| 2026-04-27 19:10 | 59.36819 | 16.91148 | 36322 ft | 395 kts | 328° |
| 2026-04-27 19:11 | 59.41433 | 16.85493 | 36302 ft | 393 kts | 328° |
| 2026-04-27 19:11 | 59.46076 | 16.79786 | 36294 ft | 394 kts | 328° |
| 2026-04-27 19:12 | 59.50715 | 16.74063 | 36294 ft | 394 kts | 328° |
| 2026-04-27 19:12 | 59.55354 | 16.68324 | 36295 ft | 394 kts | 328° |
| 2026-04-27 19:13 | 59.59991 | 16.62567 | 36292 ft | 394 kts | 328° |
| 2026-04-27 19:13 | 59.64592 | 16.56836 | 36294 ft | 394 kts | 328° |
| 2026-04-27 19:14 | 59.69217 | 16.51057 | 36315 ft | 395 kts | 328° |
| 2026-04-27 19:14 | 59.73861 | 16.45233 | 36286 ft | 394 kts | 328° |
| 2026-04-27 19:15 | 59.78489 | 16.39411 | 36312 ft | 394 kts | 328° |
| 2026-04-27 19:15 | 59.83085 | 16.33612 | 36310 ft | 394 kts | 328° |
| 2026-04-27 19:16 | 59.87711 | 16.27752 | 36313 ft | 394 kts | 328° |
| 2026-04-27 19:16 | 59.92335 | 16.21873 | 36313 ft | 394 kts | 328° |
| 2026-04-27 19:17 | 59.96957 | 16.15982 | 36312 ft | 394 kts | 328° |
| 2026-04-27 19:17 | 60.01548 | 16.10113 | 36314 ft | 394 kts | 328° |
| 2026-04-27 19:18 | 60.06166 | 16.04186 | 36316 ft | 395 kts | 328° |
| 2026-04-27 19:18 | 60.10794 | 15.98228 | 36321 ft | 395 kts | 328° |
| 2026-04-27 19:19 | 60.15422 | 15.92250 | 36314 ft | 396 kts | 328° |
| 2026-04-27 19:19 | 60.20000 | 15.86262 | 36320 ft | 396 kts | 327° |
| 2026-04-27 19:20 | 60.24616 | 15.80222 | 36308 ft | 396 kts | 328° |
| 2026-04-27 19:20 | 60.29234 | 15.74190 | 36304 ft | 396 kts | 328° |
| 2026-04-27 19:21 | 60.33855 | 15.68146 | 36301 ft | 396 kts | 328° |
| 2026-04-27 19:21 | 60.38445 | 15.62141 | 36303 ft | 395 kts | 328° |
| 2026-04-27 19:22 | 60.43071 | 15.56082 | 36324 ft | 397 kts | 328° |
| 2026-04-27 19:22 | 60.47717 | 15.50004 | 36341 ft | 397 kts | 328° |
| 2026-04-27 19:23 | 60.52352 | 15.43879 | 36344 ft | 397 kts | 328° |
| 2026-04-27 19:23 | 60.56977 | 15.37719 | 36343 ft | 398 kts | 328° |
| 2026-04-27 19:24 | 60.61572 | 15.31597 | 36347 ft | 398 kts | 328° |
| 2026-04-27 19:24 | 60.66194 | 15.25391 | 36354 ft | 398 kts | 327° |
| 2026-04-27 19:25 | 60.70811 | 15.19178 | 36353 ft | 398 kts | 328° |
| 2026-04-27 19:25 | 60.75427 | 15.12950 | 36367 ft | 398 kts | 327° |
| 2026-04-27 19:26 | 60.80015 | 15.06738 | 36355 ft | 398 kts | 327° |
| 2026-04-27 19:26 | 60.84633 | 15.00482 | 36355 ft | 398 kts | 327° |
| 2026-04-27 19:27 | 60.89247 | 14.94196 | 36341 ft | 398 kts | 327° |
| 2026-04-27 19:27 | 60.93821 | 14.87921 | 36335 ft | 398 kts | 327° |
| 2026-04-27 19:28 | 60.98431 | 14.81611 | 36333 ft | 398 kts | 327° |
| 2026-04-27 19:28 | 61.03032 | 14.75262 | 36329 ft | 398 kts | 327° |
| 2026-04-27 19:29 | 61.07637 | 14.68907 | 36331 ft | 398 kts | 327° |
| 2026-04-27 19:29 | 61.12236 | 14.62550 | 36338 ft | 399 kts | 327° |
| 2026-04-27 19:30 | 61.16829 | 14.56263 | 36353 ft | 398 kts | 327° |
| 2026-04-27 19:30 | 61.21395 | 14.49775 | 36383 ft | 398 kts | 327° |
| 2026-04-27 19:31 | 61.25996 | 14.43347 | 36380 ft | 398 kts | 327° |
| 2026-04-27 19:31 | 61.30476 | 14.36572 | 36411 ft | 400 kts | 319° |
| 2026-04-27 19:32 | 61.34529 | 14.28725 | 36386 ft | 400 kts | 320° |
| 2026-04-27 19:32 | 61.38642 | 14.20893 | 36388 ft | 400 kts | 320° |
| 2026-04-27 19:33 | 61.42755 | 14.13071 | 36388 ft | 399 kts | 320° |
| 2026-04-27 19:33 | 61.46867 | 14.05223 | 36404 ft | 400 kts | 320° |
| 2026-04-27 19:34 | 61.50944 | 13.97413 | 36404 ft | 400 kts | 320° |
| 2026-04-27 19:34 | 61.55060 | 13.89500 | 36400 ft | 402 kts | 320° |
| 2026-04-27 19:35 | 61.59170 | 13.81570 | 36404 ft | 401 kts | 320° |
| 2026-04-27 19:35 | 61.63277 | 13.73614 | 36398 ft | 401 kts | 320° |
| 2026-04-27 19:36 | 61.67351 | 13.65692 | 36405 ft | 402 kts | 320° |
| 2026-04-27 19:36 | 61.71451 | 13.57691 | 36411 ft | 402 kts | 319° |
| 2026-04-27 19:37 | 61.75547 | 13.49672 | 36406 ft | 402 kts | 319° |
| 2026-04-27 19:37 | 61.79634 | 13.41632 | 36416 ft | 402 kts | 319° |
| 2026-04-27 19:38 | 61.83690 | 13.33621 | 36415 ft | 402 kts | 319° |
| 2026-04-27 19:38 | 61.87770 | 13.25540 | 36418 ft | 402 kts | 319° |
| 2026-04-27 19:39 | 61.91853 | 13.17422 | 36419 ft | 401 kts | 320° |
| 2026-04-27 19:39 | 61.95923 | 13.09310 | 36426 ft | 402 kts | 319° |
| 2026-04-27 19:40 | 61.99959 | 13.01218 | 36439 ft | 399 kts | 320° |
| 2026-04-27 19:40 | 62.04010 | 12.93076 | 36429 ft | 400 kts | 319° |
| 2026-04-27 19:41 | 62.08058 | 12.84920 | 36426 ft | 400 kts | 320° |
| 2026-04-27 19:41 | 62.12124 | 12.76782 | 36434 ft | 401 kts | 319° |
| 2026-04-27 19:42 | 62.16121 | 12.68592 | 36429 ft | 401 kts | 319° |
| 2026-04-27 19:42 | 62.20153 | 12.60365 | 36423 ft | 400 kts | 319° |
| 2026-04-27 19:43 | 62.24184 | 12.52114 | 36448 ft | 401 kts | 319° |
| 2026-04-27 19:43 | 62.28213 | 12.43818 | 36406 ft | 401 kts | 319° |
| 2026-04-27 19:44 | 62.32140 | 12.35690 | 35960 ft | 384 kts | 319° |
| 2026-04-27 19:44 | 62.34010 | 12.31758 | 35651 ft | 371 kts | 319° |
| 2026-04-27 19:44 | 62.35853 | 12.27923 | 35117 ft | 365 kts | 320° |
| 2026-04-27 19:44 | 62.37666 | 12.24170 | 34625 ft | 358 kts | 320° |
| 2026-04-27 19:45 | 62.39446 | 12.20481 | 34115 ft | 351 kts | 320° |
| 2026-04-27 19:45 | 62.41172 | 12.16874 | 33694 ft | 341 kts | 320° |
| 2026-04-27 19:45 | 62.42857 | 12.13354 | 33224 ft | 334 kts | 320° |
| 2026-04-27 19:45 | 62.44517 | 12.09852 | 32802 ft | 335 kts | 320° |
| 2026-04-27 19:46 | 62.46208 | 12.06313 | 32366 ft | 341 kts | 320° |
| 2026-04-27 19:46 | 62.47901 | 12.02769 | 31894 ft | 346 kts | 320° |
| 2026-04-27 19:46 | 62.49624 | 11.99145 | 31450 ft | 347 kts | 320° |
| 2026-04-27 19:46 | 62.51361 | 11.95481 | 30978 ft | 347 kts | 320° |
| 2026-04-27 19:47 | 62.53093 | 11.91830 | 30507 ft | 348 kts | 320° |
| 2026-04-27 19:47 | 62.54826 | 11.88194 | 30063 ft | 347 kts | 320° |
| 2026-04-27 19:47 | 62.56566 | 11.84542 | 29543 ft | 349 kts | 320° |
| 2026-04-27 19:47 | 62.58307 | 11.80882 | 29081 ft | 350 kts | 320° |
| 2026-04-27 19:48 | 62.60052 | 11.77202 | 28622 ft | 351 kts | 320° |
| 2026-04-27 19:48 | 62.61783 | 11.73529 | 28141 ft | 354 kts | 320° |
| 2026-04-27 19:48 | 62.63547 | 11.69780 | 27654 ft | 356 kts | 320° |
| 2026-04-27 19:48 | 62.65315 | 11.66019 | 27209 ft | 357 kts | 319° |
| 2026-04-27 19:49 | 62.67095 | 11.62205 | 26725 ft | 358 kts | 319° |
| 2026-04-27 19:49 | 62.68887 | 11.58403 | 26227 ft | 362 kts | 319° |
| 2026-04-27 19:49 | 62.70697 | 11.54573 | 25746 ft | 364 kts | 319° |
| 2026-04-27 19:49 | 62.72503 | 11.50717 | 25275 ft | 363 kts | 319° |
| 2026-04-27 19:50 | 62.74294 | 11.46860 | 24774 ft | 361 kts | 319° |
| 2026-04-27 19:50 | 62.76050 | 11.43078 | 24331 ft | 359 kts | 319° |
| 2026-04-27 19:50 | 62.77820 | 11.39259 | 23884 ft | 356 kts | 319° |
| 2026-04-27 19:50 | 62.79581 | 11.35478 | 23430 ft | 354 kts | 319° |
| 2026-04-27 19:51 | 62.81370 | 11.31823 | 22946 ft | 350 kts | 324° |
| 2026-04-27 19:51 | 62.83466 | 11.29242 | 22527 ft | 345 kts | 339° |
| 2026-04-27 19:51 | 62.85802 | 11.28158 | 22032 ft | 344 kts | 355° |
| 2026-04-27 19:51 | 62.88188 | 11.28029 | 21590 ft | 342 kts | 356° |
| 2026-04-27 19:52 | 62.90560 | 11.27922 | 21143 ft | 340 kts | 356° |
| 2026-04-27 19:52 | 62.92122 | 11.27867 | 20797 ft | 339 kts | 357° |
| 2026-04-27 19:52 | 62.95120 | 11.27778 | 20291 ft | 340 kts | 357° |
| 2026-04-27 19:52 | 62.97480 | 11.27704 | 19834 ft | 336 kts | 357° |
| 2026-04-27 19:53 | 63.02116 | 11.28541 | 18958 ft | 334 kts | 7° |
| 2026-04-27 19:53 | 63.04391 | 11.29515 | 18455 ft | 332 kts | 7° |
| 2026-04-27 19:53 | 63.06649 | 11.30482 | 18055 ft | 329 kts | 7° |
| 2026-04-27 19:54 | 63.08862 | 11.31441 | 17636 ft | 328 kts | 8° |
| 2026-04-27 19:54 | 63.11096 | 11.32414 | 17186 ft | 326 kts | 8° |
| 2026-04-27 19:54 | 63.13313 | 11.33387 | 16754 ft | 325 kts | 8° |
| 2026-04-27 19:54 | 63.15527 | 11.34364 | 16320 ft | 320 kts | 8° |
| 2026-04-27 19:55 | 63.17609 | 11.35815 | 15944 ft | 310 kts | 18° |
| 2026-04-27 19:55 | 63.19550 | 11.37694 | 15434 ft | 295 kts | 19° |
| 2026-04-27 19:55 | 63.21209 | 11.40010 | 15069 ft | 277 kts | 38° |
| 2026-04-27 19:55 | 63.22181 | 11.43624 | 14734 ft | 276 kts | 66° |
| 2026-04-27 19:56 | 63.22284 | 11.47810 | 14416 ft | 280 kts | 88° |
| 2026-04-27 19:56 | 63.22026 | 11.52114 | 14077 ft | 283 kts | 89° |
| 2026-04-27 19:56 | 63.21865 | 11.56409 | 13700 ft | 274 kts | 77° |
| 2026-04-27 19:56 | 63.22207 | 11.60451 | 13351 ft | 263 kts | 66° |
| 2026-04-27 19:57 | 63.22712 | 11.64317 | 12977 ft | 260 kts | 64° |
| 2026-04-27 19:57 | 63.23225 | 11.68112 | 12629 ft | 253 kts | 65° |
| 2026-04-27 19:57 | 63.23806 | 11.71694 | 12307 ft | 239 kts | 52° |
| 2026-04-27 19:57 | 63.24783 | 11.74548 | 12029 ft | 231 kts | 42° |
| 2026-04-27 19:58 | 63.25826 | 11.77232 | 11705 ft | 234 kts | 41° |
| 2026-04-27 19:58 | 63.26894 | 11.79958 | 11412 ft | 234 kts | 42° |
| 2026-04-27 19:58 | 63.27967 | 11.82691 | 11087 ft | 233 kts | 40° |
| 2026-04-27 19:58 | 63.29258 | 11.84669 | 10790 ft | 222 kts | 20° |
| 2026-04-27 19:59 | 63.30663 | 11.86095 | 10503 ft | 224 kts | 20° |
| 2026-04-27 19:59 | 63.32106 | 11.87426 | 10115 ft | 223 kts | 9° |
| 2026-04-27 19:59 | 63.33601 | 11.87082 | 9822 ft | 217 kts | 339° |
| 2026-04-27 19:59 | 63.34831 | 11.85168 | 9564 ft | 220 kts | 316° |
| 2026-04-27 20:00 | 63.35566 | 11.82172 | 9249 ft | 231 kts | 292° |
| 2026-04-27 20:00 | 63.35946 | 11.78680 | 8952 ft | 233 kts | 289° |
| 2026-04-27 20:00 | 63.36286 | 11.75126 | 8598 ft | 233 kts | 289° |
| 2026-04-27 20:00 | 63.36658 | 11.71637 | 8314 ft | 231 kts | 290° |
| 2026-04-27 20:01 | 63.37021 | 11.68155 | 7993 ft | 232 kts | 289° |
| 2026-04-27 20:01 | 63.37363 | 11.64649 | 7691 ft | 230 kts | 288° |
| 2026-04-27 20:01 | 63.37689 | 11.61156 | 7401 ft | 230 kts | 288° |
| 2026-04-27 20:01 | 63.38009 | 11.57704 | 7109 ft | 231 kts | 288° |
| 2026-04-27 20:02 | 63.38620 | 11.54488 | 6730 ft | 222 kts | 317° |
| 2026-04-27 20:02 | 63.39888 | 11.52761 | 6477 ft | 211 kts | 341° |
| 2026-04-27 20:02 | 63.41271 | 11.51733 | 6200 ft | 210 kts | 344° |
| 2026-04-27 20:02 | 63.42684 | 11.50740 | 5958 ft | 214 kts | 343° |
| 2026-04-27 20:03 | 63.44098 | 11.49681 | 5640 ft | 216 kts | 340° |
| 2026-04-27 20:03 | 63.45335 | 11.47786 | 5392 ft | 220 kts | 313° |
| 2026-04-27 20:03 | 63.45990 | 11.44732 | 5073 ft | 227 kts | 283° |
| 2026-04-27 20:03 | 63.45927 | 11.41201 | 4763 ft | 227 kts | 263° |
| 2026-04-27 20:04 | 63.45627 | 11.37828 | 4727 ft | 214 kts | 265° |
| 2026-04-27 20:04 | 63.45612 | 11.34456 | 4262 ft | 219 kts | 277° |
| 2026-04-27 20:04 | 63.45669 | 11.31169 | 3929 ft | 205 kts | 272° |
| 2026-04-27 20:04 | 63.45641 | 11.29103 | 3721 ft | 197 kts | 271° |
| 2026-04-27 20:05 | 63.45653 | 11.25156 | 3305 ft | 181 kts | 275° |
| 2026-04-27 20:05 | 63.45673 | 11.22431 | 3048 ft | 171 kts | 273° |
| 2026-04-27 20:05 | 63.45676 | 11.19877 | 2781 ft | 161 kts | 274° |
| 2026-04-27 20:05 | 63.45687 | 11.17477 | 2550 ft | 148 kts | 274° |
| 2026-04-27 20:06 | 63.45695 | 11.15229 | 2310 ft | 142 kts | 273° |
| 2026-04-27 20:06 | 63.45699 | 11.13031 | 2089 ft | 142 kts | 274° |
| 2026-04-27 20:06 | 63.45713 | 11.10845 | 1843 ft | 140 kts | 273° |
| 2026-04-27 20:06 | 63.45718 | 11.08680 | 1625 ft | 139 kts | 272° |
| 2026-04-27 20:07 | 63.45723 | 11.06527 | 1385 ft | 138 kts | 272° |
| 2026-04-27 20:07 | 63.45729 | 11.04401 | 1161 ft | 136 kts | 272° |
| 2026-04-27 20:07 | 63.45729 | 11.02325 | 952 ft | 135 kts | 272° |
| 2026-04-27 20:07 | 63.45736 | 11.00233 | 738 ft | 135 kts | 273° |
| 2026-04-27 20:08 | 63.45747 | 10.98142 | 524 ft | 134 kts | 272° |
| 2026-04-27 20:08 | 63.45754 | 10.96065 | 309 ft | 134 kts | 271° |
| 2026-04-27 20:08 | 63.45753 | 10.93974 | 89 ft | 134 kts | 271° |
| 2026-04-27 20:08 | 63.45759 | 10.92057 | 48 ft | 109 kts | 271° |
| 2026-04-27 20:09 | 63.45763 | 10.90674 | 35 ft | 72 kts | 270° |
| 2026-04-27 20:09 | 63.45766 | 10.89709 | 29 ft | 58 kts | 270° |
| 2026-04-27 20:09 | 63.45758 | 10.89096 | 24 ft | 20 kts | 250° |
| 2026-04-27 20:09 | 63.45750 | 10.88995 | 23 ft | 1 kts | 357° |
| 2026-04-27 20:10 | 63.45760 | 10.89043 | 24 ft | 9 kts | 81° |
| 2026-04-27 20:10 | 63.45763 | 10.89186 | 24 ft | 7 kts | 103° |
| 2026-04-27 20:10 | 63.45722 | 10.89274 | 25 ft | 9 kts | 149° |
| 2026-04-27 20:10 | 63.45673 | 10.89389 | 26 ft | 12 kts | 129° |
| 2026-04-27 20:11 | 63.45617 | 10.89542 | 27 ft | 12 kts | 130° |
| 2026-04-27 20:11 | 63.45603 | 10.89689 | 28 ft | 11 kts | 91° |
| 2026-04-27 20:11 | 63.45601 | 10.89867 | 30 ft | 13 kts | 91° |
| 2026-04-27 20:11 | 63.45598 | 10.90076 | 32 ft | 14 kts | 92° |
| 2026-04-27 20:12 | 63.45598 | 10.90315 | 34 ft | 16 kts | 90° |
| 2026-04-27 20:12 | 63.45597 | 10.90487 | 35 ft | 17 kts | 88° |
| 2026-04-27 20:12 | 63.45598 | 10.90821 | 38 ft | 13 kts | 89° |
| 2026-04-27 20:12 | 63.45597 | 10.90996 | 39 ft | 11 kts | 92° |
| 2026-04-27 20:13 | 63.45593 | 10.91142 | 38 ft | 4 kts | 119° |
| 2026-04-27 20:13 | 63.45567 | 10.91152 | 40 ft | 6 kts | 179° |
| 2026-04-27 20:13 | 63.45506 | 10.91157 | 41 ft | 11 kts | 177° |
| 2026-04-27 20:13 | 63.45421 | 10.91171 | 41 ft | 8 kts | 175° |
| 2026-04-27 20:14 | 63.45401 | 10.91198 | 41 ft | 1 kts | 123° |
| 2026-04-27 20:14 | 63.45403 | 10.91275 | 42 ft | 9 kts | 90° |
| 2026-04-27 20:14 | 63.45403 | 10.91289 | 42 ft | 0 kts | 90° |
| 2026-04-27 20:16 | 56.52024 | 21.11078 | 20 ft | 27 kts | 248° |
| 2026-04-27 20:16 | 56.51856 | 21.10235 | 17 ft | 113 kts | 251° |
| 2026-04-27 20:17 | 56.51523 | 21.08521 | 299 ft | 164 kts | 257° |
| 2026-04-27 20:17 | 56.51206 | 21.06427 | 1287 ft | 177 kts | 260° |
| 2026-04-27 20:17 | 63.37917 | 11.58696 | 34761 ft | 398 kts | 288° |
| 2026-04-27 20:17 | 63.45754 | 10.95456 | 245 ft | 134 kts | 271° |
| 2026-04-27 20:18 | 63.45754 | 10.93378 | 58 ft | 129 kts | 270° |
| 2026-04-27 20:18 | 63.45761 | 10.91616 | 45 ft | 96 kts | 270° |
| 2026-04-27 20:18 | 63.45753 | 10.94677 | 83 ft | 133 kts | 271° |
| 2026-04-27 20:18 | 63.45756 | 10.93030 | 59 ft | 125 kts | 271° |